Impacts TAF Board INFO
FOR SITUATIONAL AWARENESS. NOT TO BE USED FOR FLIGHT PLANNING PURPOSES.
IDs:

KMEM - Memphis Intl, TN, US

Issued at 0305 UTC 20 Feb 2018
Updated at 0347 UTC 20 Feb 2018
Potential Impact None Slight Moderate High
Time0254Z 20/04Z 20/05Z 20/06Z 20/07Z 20/08Z 20/09Z 20/10Z 20/11Z 20/12Z 20/13Z 20/14Z 20/15Z 20/16Z>>
Type OBS PRVL PRVL PRVL PRVL PRVL PRVL PRVL PRVL PRVL PRVL PRVL PRVL PRVL
VIS 10 >6 >6 >6 >6 >6 >6 >6 >6 >6 >6 >6 >6 >6
CIG -- 200 200 200 200 200 200 200 200 35 35 35 35 35
Cover SCT OVC OVC OVC OVC OVC OVC OVC OVC BKN BKN BKN BKN OVC
FltCat VFR VFR VFR VFR VFR VFR VFR VFR VFR VFR VFR VFR VFR VFR
WX -- -- -- -- -- -- -- -- -- -- -- -- -- --
WDir 170 180 170 170 170 170 170 170 170 180 180 180 180 180
WSpd 10 11 15 15 15 15 15 15 15 15 15 15 15 18
WGst -- -- 22 22 22 22 22 22 22 23 23 23 23 25

Raw TAF
KMEM 200305Z 2003/2106 18011KT P6SM SCT050 OVC200
  FM200500 17015G22KT P6SM SCT050 OVC200 WS020/19050KT
  FM201200 18015G23KT P6SM BKN035 BKN200
  FM201600 18018G25KT P6SM BKN035 OVC050
  FM210000 18013KT P6SM VCSH BKN025 OVC200


Raw METAR
KMEM 200254Z 17010KT 10SM FEW180 SCT250 21/12 A3004 RMK AO2 SLP169 T02060122 53002
KMEM 200154Z 17010KT 10SM BKN180 BKN250 21/12 A3003 RMK AO2 SLP166 T02110122
KMEM 200054Z 14005KT 10SM FEW110 BKN180 BKN250 22/12 A3003 RMK AO2 SLP167 T02170122

METAR Board
Radar Display
Forecast Discussion

FOR SITUATIONAL AWARENESS. NOT TO BE USED FOR FLIGHT PLANNING PURPOSES.